createdAt,value
2022-12-31T00:01:03.040Z,0.10
2022-12-31T00:03:31.139Z,0.17
2022-12-31T00:06:00.905Z,0.00
2022-12-31T00:08:29.034Z,3.38
2022-12-31T00:10:57.121Z,0.98
2022-12-31T00:13:25.256Z,0.20
2022-12-31T00:15:53.312Z,0.22
2022-12-31T00:18:21.359Z,0.22
2022-12-31T00:20:49.542Z,1.98
2022-12-31T00:23:18.987Z,0.75
2022-12-31T00:25:47.202Z,0.68
2022-12-31T00:28:15.257Z,0.38
2022-12-31T00:30:43.320Z,0.13
2022-12-31T00:33:11.391Z,0.55
2022-12-31T00:35:39.604Z,0.25
2022-12-31T00:38:07.881Z,0.10
2022-12-31T00:40:37.421Z,0.10
2022-12-31T00:43:05.486Z,0.05
2022-12-31T00:45:33.558Z,0.55
2022-12-31T00:48:05.287Z,0.82
2022-12-31T00:50:33.285Z,0.75
2022-12-31T00:53:01.327Z,0.43
2022-12-31T00:55:33.311Z,0.17
2022-12-31T00:58:02.792Z,2.35
2022-12-31T01:00:31.087Z,2.40
2022-12-31T01:02:59.284Z,0.20
2022-12-31T01:05:27.363Z,0.47
2022-12-31T01:07:55.433Z,1.75
2022-12-31T01:10:37.562Z,0.17
2022-12-31T01:13:07.005Z,0.93
2022-12-31T01:15:36.565Z,0.88
2022-12-31T01:18:04.903Z,0.80
2022-12-31T01:20:37.136Z,1.08
2022-12-31T01:23:05.687Z,3.30
2022-12-31T01:25:37.527Z,0.68
2022-12-31T01:28:07.961Z,2.65
2022-12-31T01:30:39.813Z,0.93
2022-12-31T01:33:07.925Z,0.95
2022-12-31T01:35:37.097Z,1.10
2022-12-31T01:38:05.201Z,2.00
2022-12-31T01:40:38.126Z,2.38
2022-12-31T01:43:17.427Z,1.13
2022-12-31T01:45:48.890Z,0.90
2022-12-31T01:48:26.383Z,0.50
2022-12-31T01:50:56.128Z,5.85
2022-12-31T01:53:24.356Z,3.17
2022-12-31T01:55:57.841Z,2.67
2022-12-31T01:58:36.039Z,0.98
2022-12-31T02:01:05.574Z,1.38
2022-12-31T02:03:33.680Z,0.50
2022-12-31T02:06:10.069Z,1.80
2022-12-31T02:08:42.374Z,4.97
2022-12-31T02:11:32.936Z,3.13
2022-12-31T02:14:07.061Z,1.75
2022-12-31T02:16:47.022Z,0.80
2022-12-31T02:19:57.245Z,0.75
2022-12-31T02:22:53.032Z,4.05
2022-12-31T02:25:53.811Z,0.77
2022-12-31T02:28:49.840Z,1.98
2022-12-31T02:31:32.678Z,4.05
2022-12-31T02:34:09.520Z,4.90
2022-12-31T02:36:44.068Z,1.75
2022-12-31T02:39:13.475Z,2.42
2022-12-31T02:41:53.865Z,2.58
2022-12-31T02:44:27.888Z,10.23
2022-12-31T02:47:14.545Z,1.42
2022-12-31T02:49:59.146Z,2.77
2022-12-31T02:52:47.877Z,2.85
2022-12-31T02:55:26.683Z,2.20
2022-12-31T02:58:09.553Z,2.05
2022-12-31T03:01:04.115Z,2.72
2022-12-31T03:03:34.246Z,5.43
2022-12-31T03:06:05.440Z,2.03
2022-12-31T03:08:53.543Z,1.70
2022-12-31T03:11:35.576Z,2.65
2022-12-31T03:14:03.614Z,12.27
2022-12-31T03:16:31.682Z,6.47
2022-12-31T03:19:19.008Z,1.27
2022-12-31T03:22:04.515Z,2.40
2022-12-31T03:24:49.884Z,1.95
2022-12-31T03:27:18.015Z,2.67
2022-12-31T03:29:46.154Z,1.73
2022-12-31T03:32:14.228Z,1.80
2022-12-31T03:34:43.638Z,1.52
2022-12-31T03:37:11.623Z,2.75
2022-12-31T03:39:39.819Z,5.53
2022-12-31T03:42:07.896Z,4.40
2022-12-31T03:44:35.934Z,1.48
2022-12-31T03:47:04.014Z,5.32
2022-12-31T03:49:32.037Z,3.00
2022-12-31T03:52:03.008Z,3.35
2022-12-31T03:54:31.302Z,3.55
2022-12-31T03:57:00.416Z,2.75
2022-12-31T03:59:28.571Z,3.42
2022-12-31T04:01:56.697Z,6.78
2022-12-31T04:04:24.764Z,2.05
2022-12-31T04:06:52.833Z,2.30
2022-12-31T04:09:22.577Z,7.63
2022-12-31T04:11:50.776Z,4.45
2022-12-31T04:14:19.835Z,3.55
2022-12-31T04:16:47.935Z,3.08
2022-12-31T04:19:16.025Z,2.50
2022-12-31T04:21:44.122Z,3.63
2022-12-31T04:24:12.892Z,5.13
2022-12-31T04:26:43.747Z,3.03
2022-12-31T04:29:12.185Z,2.15
2022-12-31T04:31:40.233Z,0.80
2022-12-31T04:34:08.455Z,2.35
2022-12-31T04:36:36.797Z,3.85
2022-12-31T04:39:05.141Z,5.55
2022-12-31T04:41:33.369Z,3.92
2022-12-31T04:44:03.241Z,4.38
2022-12-31T04:46:34.162Z,3.78
2022-12-31T04:49:03.027Z,1.48
2022-12-31T04:51:32.809Z,3.22
2022-12-31T04:54:01.129Z,2.10
2022-12-31T04:56:30.363Z,3.88
2022-12-31T04:58:58.599Z,3.80
2022-12-31T05:01:28.483Z,1.63
2022-12-31T05:03:56.701Z,1.20
2022-12-31T05:06:25.102Z,0.47
2022-12-31T05:08:53.246Z,2.20
2022-12-31T05:11:21.680Z,2.10
2022-12-31T05:13:49.911Z,0.73
2022-12-31T05:16:18.128Z,1.13
2022-12-31T05:18:47.968Z,4.68
2022-12-31T05:21:20.810Z,2.30
2022-12-31T05:23:49.691Z,1.48
2022-12-31T05:26:18.569Z,1.02
2022-12-31T05:28:46.733Z,1.73
2022-12-31T05:31:15.242Z,2.05
2022-12-31T05:33:43.655Z,0.50
2022-12-31T05:36:13.231Z,2.33
2022-12-31T05:38:41.485Z,1.17
2022-12-31T05:41:10.101Z,1.33
2022-12-31T05:43:38.532Z,3.78
2022-12-31T05:46:07.045Z,5.20
2022-12-31T05:48:36.052Z,1.05
2022-12-31T05:51:09.006Z,0.47
2022-12-31T05:53:40.413Z,3.55
2022-12-31T05:56:09.047Z,4.03
2022-12-31T05:58:38.618Z,1.50
2022-12-31T06:01:07.128Z,1.15
2022-12-31T06:03:35.797Z,1.73
2022-12-31T06:06:04.165Z,0.82
2022-12-31T06:08:32.464Z,3.78
2022-12-31T06:11:02.298Z,2.60
2022-12-31T06:13:30.544Z,1.13
2022-12-31T06:15:58.789Z,0.50
2022-12-31T06:18:27.221Z,2.15
2022-12-31T06:20:55.411Z,1.10
2022-12-31T06:23:23.572Z,1.27
2022-12-31T06:25:52.027Z,1.40
2022-12-31T06:28:21.626Z,2.70
2022-12-31T06:30:50.316Z,0.90
2022-12-31T06:33:18.787Z,2.72
2022-12-31T06:35:46.934Z,0.60
2022-12-31T06:38:14.984Z,2.08
2022-12-31T06:40:43.120Z,5.65
2022-12-31T06:43:11.198Z,1.52
2022-12-31T06:45:42.208Z,0.40
2022-12-31T06:48:10.358Z,1.63
2022-12-31T06:50:40.353Z,0.57
2022-12-31T06:53:09.390Z,1.13
2022-12-31T06:55:38.804Z,2.08
2022-12-31T06:58:07.739Z,2.97
2022-12-31T07:00:36.443Z,1.90
2022-12-31T07:03:25.711Z,0.98
2022-12-31T07:06:03.068Z,1.75
2022-12-31T07:08:49.231Z,0.60
2022-12-31T07:11:24.173Z,1.35
2022-12-31T07:14:04.568Z,1.85
2022-12-31T07:16:50.469Z,0.80
2022-12-31T07:19:39.257Z,3.00
2022-12-31T07:22:15.640Z,3.05
2022-12-31T07:24:45.579Z,0.65
2022-12-31T07:27:37.327Z,2.20
2022-12-31T07:30:13.447Z,3.45
2022-12-31T07:33:10.172Z,1.03
2022-12-31T07:35:50.143Z,5.97
2022-12-31T07:38:32.677Z,5.65
2022-12-31T07:41:15.214Z,2.58
2022-12-31T07:44:01.368Z,3.42
2022-12-31T07:46:37.147Z,1.80
2022-12-31T07:49:07.227Z,1.38
2022-12-31T07:51:37.697Z,3.03
2022-12-31T07:54:11.863Z,0.50
2022-12-31T07:56:42.697Z,1.77
2022-12-31T07:59:36.102Z,5.70
2022-12-31T08:02:19.514Z,2.05
2022-12-31T08:05:01.385Z,2.88
2022-12-31T08:07:44.684Z,1.65
2022-12-31T08:10:24.127Z,2.83
2022-12-31T08:12:56.977Z,0.80
2022-12-31T08:15:30.372Z,1.58
2022-12-31T08:17:59.607Z,2.92
2022-12-31T08:20:30.580Z,2.75
2022-12-31T08:23:22.969Z,2.22
2022-12-31T08:26:23.976Z,1.30
2022-12-31T08:29:09.427Z,2.28
2022-12-31T08:31:50.059Z,1.00
2022-12-31T08:34:31.209Z,0.68
2022-12-31T08:37:09.854Z,0.75
2022-12-31T08:39:59.996Z,1.65
2022-12-31T08:42:38.011Z,0.55
2022-12-31T08:45:18.273Z,2.75
2022-12-31T08:48:00.214Z,1.85
2022-12-31T08:50:30.157Z,2.90
2022-12-31T08:52:59.251Z,1.63
2022-12-31T08:55:30.468Z,3.40
2022-12-31T08:58:16.420Z,2.67
2022-12-31T09:00:44.664Z,3.25
2022-12-31T09:03:43.650Z,2.90
2022-12-31T09:06:20.979Z,2.20
2022-12-31T09:08:58.960Z,2.58
2022-12-31T09:11:40.116Z,2.15
2022-12-31T09:14:31.578Z,1.25
2022-12-31T09:17:11.579Z,4.70
2022-12-31T09:19:39.851Z,2.53
2022-12-31T09:22:08.639Z,5.80
2022-12-31T09:24:37.710Z,9.05
2022-12-31T09:27:16.530Z,4.38
2022-12-31T09:29:58.468Z,2.45
2022-12-31T09:32:41.582Z,1.33
2022-12-31T09:35:23.140Z,2.40
2022-12-31T09:37:57.399Z,3.92
2022-12-31T09:40:49.269Z,0.80
2022-12-31T09:44:19.295Z,6.68
2022-12-31T09:47:26.102Z,0.55
2022-12-31T09:50:39.022Z,2.10
2022-12-31T09:53:39.197Z,2.28
2022-12-31T09:56:21.760Z,2.58
2022-12-31T09:59:03.889Z,2.03
2022-12-31T10:01:49.632Z,4.00
2022-12-31T10:05:08.974Z,3.28
2022-12-31T10:07:53.865Z,0.77
2022-12-31T10:10:31.302Z,3.25
2022-12-31T10:13:44.068Z,2.40
2022-12-31T10:16:44.343Z,1.55
2022-12-31T10:19:52.909Z,1.00
2022-12-31T10:22:46.779Z,3.33
2022-12-31T10:25:45.242Z,0.80
2022-12-31T10:28:32.082Z,2.15
2022-12-31T10:31:15.840Z,0.73
2022-12-31T10:33:51.882Z,0.75
2022-12-31T10:36:32.023Z,3.55
2022-12-31T10:39:20.565Z,0.85
2022-12-31T10:42:20.685Z,1.20
2022-12-31T10:45:39.468Z,1.23
2022-12-31T10:48:49.852Z,1.85
2022-12-31T10:52:08.666Z,2.33
2022-12-31T10:55:06.586Z,0.57
2022-12-31T11:00:58.659Z,0.40
2022-12-31T11:04:29.565Z,2.05
2022-12-31T11:07:54.613Z,1.75
2022-12-31T11:10:56.689Z,1.08
2022-12-31T11:13:56.118Z,3.47
2022-12-31T11:16:54.496Z,7.38
2022-12-31T11:19:40.753Z,1.50
2022-12-31T11:22:36.732Z,1.08
2022-12-31T11:25:39.338Z,1.83
2022-12-31T11:28:38.575Z,1.60
2022-12-31T11:31:24.467Z,3.25
2022-12-31T11:34:15.211Z,6.07
2022-12-31T11:37:06.828Z,2.63
2022-12-31T11:39:51.007Z,3.15
2022-12-31T11:42:30.342Z,1.10
2022-12-31T11:45:13.717Z,1.08
2022-12-31T11:51:09.334Z,1.00
2022-12-31T11:54:14.494Z,3.40
2022-12-31T11:57:06.407Z,1.65
2022-12-31T11:59:34.672Z,1.45
2022-12-31T12:02:26.931Z,1.05
2022-12-31T12:05:06.605Z,1.02
2022-12-31T12:07:38.447Z,1.17
2022-12-31T12:10:24.171Z,2.15
2022-12-31T12:12:56.968Z,1.30
2022-12-31T12:15:30.812Z,1.63
2022-12-31T12:18:05.906Z,4.45
2022-12-31T12:20:38.972Z,1.33
2022-12-31T12:23:18.253Z,1.20
2022-12-31T12:25:46.377Z,2.22
2022-12-31T12:28:25.717Z,1.73
2022-12-31T12:31:02.108Z,1.38
2022-12-31T12:33:43.920Z,2.13
2022-12-31T12:36:16.027Z,2.30
2022-12-31T12:38:44.371Z,1.55
2022-12-31T12:41:21.944Z,2.90
2022-12-31T12:44:02.308Z,4.85
2022-12-31T12:46:35.240Z,2.90
2022-12-31T12:49:05.225Z,3.20
2022-12-31T12:51:57.313Z,4.82
2022-12-31T12:54:44.644Z,2.92
2022-12-31T13:00:07.574Z,2.03
2022-12-31T13:03:21.537Z,3.85
2022-12-31T13:06:22.806Z,1.48
2022-12-31T13:09:23.145Z,1.73
2022-12-31T13:12:07.691Z,1.98
2022-12-31T13:14:46.720Z,3.88
2022-12-31T13:17:53.311Z,1.98
2022-12-31T13:20:33.936Z,3.83
2022-12-31T13:23:14.275Z,2.03
2022-12-31T13:26:05.236Z,4.82
2022-12-31T13:28:36.601Z,3.13
2022-12-31T13:31:13.060Z,2.33
2022-12-31T13:33:48.255Z,3.60
2022-12-31T13:36:21.794Z,1.77
2022-12-31T13:38:53.172Z,2.03
2022-12-31T13:41:30.879Z,3.97
2022-12-31T13:44:12.880Z,2.97
2022-12-31T13:46:47.811Z,1.45
2022-12-31T13:49:26.112Z,2.50
2022-12-31T13:52:02.592Z,1.42
2022-12-31T13:54:43.586Z,1.33
2022-12-31T13:57:24.479Z,3.13
2022-12-31T14:00:01.623Z,1.35
2022-12-31T14:02:42.652Z,1.05
2022-12-31T14:05:23.808Z,1.50
2022-12-31T14:07:56.237Z,2.17
2022-12-31T14:10:42.555Z,2.58
2022-12-31T14:13:35.397Z,2.25
2022-12-31T14:16:20.481Z,2.58
2022-12-31T14:19:00.757Z,1.85
2022-12-31T14:21:40.056Z,1.27
2022-12-31T14:24:15.546Z,2.58
2022-12-31T14:26:49.960Z,1.25
2022-12-31T14:29:32.946Z,1.55
2022-12-31T14:32:33.657Z,3.08
2022-12-31T14:35:22.243Z,1.27
2022-12-31T14:38:04.108Z,1.75
2022-12-31T14:40:51.147Z,3.95
2022-12-31T14:43:33.374Z,2.28
2022-12-31T14:46:16.278Z,1.58
2022-12-31T14:49:00.469Z,2.40
2022-12-31T14:51:30.353Z,2.05
2022-12-31T14:54:00.408Z,2.00
2022-12-31T14:56:41.280Z,5.15
2022-12-31T14:59:27.826Z,2.50
2022-12-31T15:01:58.076Z,3.80
2022-12-31T15:04:37.235Z,1.52
2022-12-31T15:07:17.657Z,1.00
2022-12-31T15:10:04.003Z,2.72
2022-12-31T15:13:01.073Z,0.95
2022-12-31T15:16:09.677Z,3.88
2022-12-31T15:21:52.200Z,2.95
2022-12-31T15:24:23.855Z,1.65
2022-12-31T15:26:56.993Z,1.20
2022-12-31T15:29:31.228Z,3.95
2022-12-31T15:32:03.362Z,1.00
2022-12-31T15:34:34.846Z,2.67
2022-12-31T15:37:06.628Z,1.05
2022-12-31T15:39:42.433Z,4.05
2022-12-31T15:42:49.456Z,3.40
2022-12-31T15:45:26.212Z,8.07
2022-12-31T15:48:00.114Z,1.53
2022-12-31T15:50:31.055Z,4.60
2022-12-31T15:53:03.492Z,2.53
2022-12-31T15:55:41.708Z,1.48
2022-12-31T15:58:21.403Z,4.22
2022-12-31T16:01:04.485Z,3.08
2022-12-31T16:03:34.451Z,1.25
2022-12-31T16:06:05.412Z,2.95
2022-12-31T16:08:36.160Z,1.45
2022-12-31T16:11:07.145Z,1.85
2022-12-31T16:13:42.319Z,2.05
2022-12-31T16:16:23.794Z,3.10
2022-12-31T16:18:53.135Z,3.42
2022-12-31T16:21:27.979Z,4.15
2022-12-31T16:23:58.605Z,1.52
2022-12-31T16:26:35.260Z,2.75
2022-12-31T16:29:05.635Z,7.30
2022-12-31T16:31:34.088Z,2.42
2022-12-31T16:34:14.857Z,1.80
2022-12-31T16:36:43.581Z,2.05
2022-12-31T16:39:26.744Z,3.10
2022-12-31T16:42:17.676Z,1.73
2022-12-31T16:44:47.978Z,2.30
2022-12-31T16:47:22.909Z,2.50
2022-12-31T16:50:03.331Z,8.40
2022-12-31T16:52:37.758Z,2.38
2022-12-31T16:55:10.535Z,2.00
2022-12-31T16:57:39.569Z,3.55
2022-12-31T17:00:18.066Z,5.03
2022-12-31T17:02:53.855Z,6.03
2022-12-31T17:05:25.356Z,2.10
2022-12-31T17:07:53.547Z,2.20
2022-12-31T17:10:25.361Z,3.40
2022-12-31T17:15:47.382Z,1.83
2022-12-31T17:18:21.179Z,1.70
2022-12-31T17:20:52.163Z,3.40
2022-12-31T17:23:27.595Z,1.77
2022-12-31T17:26:01.855Z,3.40
2022-12-31T17:28:45.807Z,2.13
2022-12-31T17:31:59.662Z,2.70
2022-12-31T17:34:33.727Z,5.68
2022-12-31T17:37:18.248Z,2.67
2022-12-31T17:39:50.332Z,3.38
2022-12-31T17:42:32.313Z,3.40
2022-12-31T17:45:03.164Z,1.02
2022-12-31T17:47:39.219Z,2.90
2022-12-31T17:50:19.940Z,2.35
2022-12-31T17:52:48.865Z,10.40
2022-12-31T17:55:17.410Z,1.75
2022-12-31T17:57:52.256Z,5.95
2022-12-31T18:00:24.154Z,1.90
2022-12-31T18:02:54.045Z,5.05
2022-12-31T18:05:24.685Z,6.88
2022-12-31T18:07:54.041Z,3.20
2022-12-31T18:10:25.148Z,3.60
2022-12-31T18:12:53.908Z,3.13
2022-12-31T18:15:25.301Z,1.60
2022-12-31T18:17:55.081Z,4.05
2022-12-31T18:20:23.980Z,3.38
2022-12-31T18:22:53.431Z,2.38
2022-12-31T18:25:24.483Z,2.30
2022-12-31T18:27:53.413Z,2.92
2022-12-31T18:30:23.501Z,3.30
2022-12-31T18:32:51.836Z,2.72
2022-12-31T18:38:15.893Z,2.47
2022-12-31T18:40:49.764Z,2.70
2022-12-31T18:43:20.025Z,4.22
2022-12-31T18:45:49.424Z,3.17
2022-12-31T18:48:18.667Z,2.97
2022-12-31T18:50:49.630Z,3.08
2022-12-31T18:53:21.031Z,5.40
2022-12-31T18:55:51.946Z,1.98
2022-12-31T18:58:21.024Z,4.05
2022-12-31T19:00:50.603Z,3.30
2022-12-31T19:03:23.774Z,2.10
2022-12-31T19:05:53.690Z,3.33
2022-12-31T19:08:24.156Z,1.45
2022-12-31T19:10:53.757Z,1.95
2022-12-31T19:13:23.272Z,3.97
2022-12-31T19:15:55.564Z,2.97
2022-12-31T19:18:23.686Z,3.45
2022-12-31T19:20:53.958Z,5.38
2022-12-31T19:23:22.707Z,3.53
2022-12-31T19:25:51.396Z,1.45
2022-12-31T19:28:25.131Z,1.50
2022-12-31T19:30:54.035Z,2.70
2022-12-31T19:33:22.166Z,1.75
2022-12-31T19:35:50.418Z,2.00
2022-12-31T19:38:23.363Z,2.08
2022-12-31T19:40:53.347Z,1.00
2022-12-31T19:43:24.048Z,3.10
2022-12-31T19:45:53.039Z,1.80
2022-12-31T19:48:32.028Z,2.05
2022-12-31T19:51:00.977Z,3.78
2022-12-31T19:53:30.675Z,2.30
2022-12-31T19:55:58.730Z,1.88
2022-12-31T19:58:28.585Z,2.70
2022-12-31T20:01:02.445Z,3.22
2022-12-31T20:03:32.492Z,2.30
2022-12-31T20:06:07.090Z,2.00
2022-12-31T20:08:38.559Z,2.92
2022-12-31T20:11:13.484Z,1.40
2022-12-31T20:13:43.287Z,2.08
2022-12-31T20:16:15.246Z,1.48
2022-12-31T20:18:47.329Z,1.77
2022-12-31T20:21:18.956Z,3.75
2022-12-31T20:23:50.213Z,1.98
2022-12-31T20:26:19.000Z,2.25
2022-12-31T20:28:47.602Z,5.22
2022-12-31T20:31:20.296Z,1.55
2022-12-31T20:33:49.341Z,0.80
2022-12-31T20:36:19.052Z,1.95
2022-12-31T20:38:49.327Z,0.90
2022-12-31T20:41:20.549Z,2.88
2022-12-31T20:43:49.080Z,2.75
2022-12-31T20:46:20.750Z,1.23
2022-12-31T20:48:52.049Z,1.58
2022-12-31T20:51:23.688Z,1.45
2022-12-31T20:53:56.360Z,1.58
2022-12-31T20:56:25.966Z,0.98
2022-12-31T20:58:54.285Z,1.20
2022-12-31T21:01:23.536Z,3.55
2022-12-31T21:04:08.434Z,1.00
2022-12-31T21:06:37.570Z,3.25
2022-12-31T21:09:09.517Z,4.13
2022-12-31T21:11:55.134Z,1.42
2022-12-31T21:14:23.378Z,2.72
2022-12-31T21:16:51.948Z,1.08
2022-12-31T21:19:20.146Z,3.55
2022-12-31T21:21:49.791Z,1.88
2022-12-31T21:24:23.768Z,1.23
2022-12-31T21:26:52.801Z,1.77
2022-12-31T21:29:20.849Z,2.58
2022-12-31T21:31:48.942Z,2.25
2022-12-31T21:34:17.022Z,1.77
2022-12-31T21:36:45.078Z,2.55
2022-12-31T21:39:13.179Z,3.10
2022-12-31T21:41:54.781Z,1.58
2022-12-31T21:44:24.856Z,1.40
2022-12-31T21:47:36.159Z,2.15
2022-12-31T21:50:07.729Z,3.00
2022-12-31T21:52:35.859Z,3.22
2022-12-31T21:55:24.388Z,3.92
2022-12-31T22:01:00.368Z,0.73
2022-12-31T22:03:29.231Z,2.38
2022-12-31T22:06:01.142Z,1.30
2022-12-31T22:08:31.536Z,0.60
2022-12-31T22:11:00.154Z,2.38
2022-12-31T22:13:30.010Z,0.90
2022-12-31T22:16:04.831Z,0.88
2022-12-31T22:18:35.648Z,0.85
2022-12-31T22:21:13.728Z,2.15
2022-12-31T22:23:44.365Z,0.95
2022-12-31T22:26:16.291Z,1.33
2022-12-31T22:28:47.042Z,1.40
2022-12-31T22:31:17.920Z,3.28
2022-12-31T22:33:46.440Z,2.97
2022-12-31T22:36:18.310Z,1.00
2022-12-31T22:38:47.427Z,0.52
2022-12-31T22:41:18.002Z,0.60
2022-12-31T22:43:50.611Z,1.27
2022-12-31T22:46:23.072Z,2.38
2022-12-31T22:48:52.612Z,4.28
2022-12-31T22:51:21.813Z,2.28
2022-12-31T22:53:49.924Z,3.90
2022-12-31T22:56:20.166Z,6.18
2022-12-31T22:58:49.616Z,4.20
2022-12-31T23:01:21.987Z,3.83
2022-12-31T23:03:52.276Z,11.13
2022-12-31T23:06:21.664Z,1.40
2022-12-31T23:09:04.229Z,2.55
2022-12-31T23:11:34.875Z,24.33
2022-12-31T23:14:23.256Z,16.98
2022-12-31T23:17:31.313Z,30.92
2022-12-31T23:20:14.724Z,24.55
2022-12-31T23:23:00.226Z,13.35
2022-12-31T23:25:28.367Z,23.73
2022-12-31T23:27:56.437Z,22.75
2022-12-31T23:30:26.109Z,16.15
2022-12-31T23:32:54.550Z,8.43
2022-12-31T23:35:22.853Z,11.60
2022-12-31T23:37:51.209Z,8.00
2022-12-31T23:40:21.856Z,6.00
2022-12-31T23:42:50.618Z,5.22
2022-12-31T23:45:18.784Z,5.05
2022-12-31T23:47:48.183Z,7.65
2022-12-31T23:50:16.384Z,11.77
2022-12-31T23:52:44.581Z,10.00
2022-12-31T23:55:12.767Z,11.15
2022-12-31T23:57:40.886Z,7.88
